Time;durP1;ratioP1;P1;durP2;ratioP2;P2;SDS_P1;SDS_P2;PMS_P1;PMS_P2;Temp;Humidity;BMP_temperature;BMP_pressure;BME280_temperature;BME280_humidity;BME280_pressure;Samples;Min_cycle;Max_cycle;Signal;HPM_P1;HPM_P2
2021/12/30 00:00:08;;;;;;;3.22;1.75;;;20.60;66.30;;;;;;7872717;28;20188;-61
2021/12/30 00:03:54;;;;;;;4.63;1.80;;;20.50;66.30;;;;;;7873560;28;20185;-61
2021/12/30 00:07:40;;;;;;;6.53;2.53;;;20.50;66.20;;;;;;7872587;28;20169;-60
2021/12/30 00:11:26;;;;;;;8.95;2.20;;;20.50;66.20;;;;;;7872956;28;20202;-61
2021/12/30 00:15:11;;;;;;;2.35;1.90;;;20.50;66.40;;;;;;7872816;28;20209;-61
2021/12/30 00:18:57;;;;;;;3.78;2.05;;;20.50;66.30;;;;;;7872369;28;20267;-60
2021/12/30 00:22:43;;;;;;;4.25;1.95;;;20.40;66.40;;;;;;7872864;28;20227;-61
2021/12/30 00:26:29;;;;;;;4.82;1.77;;;20.50;66.40;;;;;;7872861;28;20177;-61
2021/12/30 00:30:14;;;;;;;2.83;1.90;;;20.40;66.30;;;;;;7871824;28;20573;-61
2021/12/30 00:34:00;;;;;;;1.98;1.75;;;20.40;66.40;;;;;;7872443;28;20201;-61
2021/12/30 00:37:45;;;;;;;3.72;1.80;;;20.40;66.40;;;;;;7871722;28;20627;-61
2021/12/30 00:41:31;;;;;;;3.45;2.00;;;20.40;66.40;;;;;;7872400;28;20227;-61
2021/12/30 00:45:16;;;;;;;3.38;1.70;;;20.30;66.40;;;;;;7872547;28;20204;-61
2021/12/30 00:49:03;;;;;;;5.38;1.80;;;20.30;66.40;;;;;;7871588;28;20177;-60
2021/12/30 00:52:49;;;;;;;2.50;1.83;;;20.30;66.40;;;;;;7871730;28;20303;-61
2021/12/30 00:56:34;;;;;;;3.42;1.80;;;20.30;66.40;;;;;;7871762;28;20178;-61
2021/12/30 01:00:21;;;;;;;4.88;2.00;;;20.30;66.40;;;;;;7871098;28;20666;-61
2021/12/30 01:04:07;;;;;;;2.92;1.70;;;20.30;66.40;;;;;;7871558;28;20578;-61
2021/12/30 01:07:53;;;;;;;3.08;1.88;;;20.30;66.40;;;;;;7870733;28;20216;-61
2021/12/30 01:11:39;;;;;;;1.70;1.40;;;20.30;66.40;;;;;;7871297;28;20197;-61
2021/12/30 01:15:34;;;;;;;4.68;2.10;;;20.30;66.50;;;;;;7871212;28;20205;-61
2021/12/30 01:23:06;;;;;;;3.42;2.08;;;20.20;66.50;;;;;;7871151;28;20208;-61
2021/12/30 01:26:51;;;;;;;1.73;1.60;;;20.20;66.50;;;;;;7870889;28;20180;-61
2021/12/30 01:30:37;;;;;;;2.38;1.60;;;20.20;66.50;;;;;;7869962;28;20222;-61
2021/12/30 01:34:22;;;;;;;1.98;1.63;;;20.20;66.50;;;;;;7870453;28;20240;-61
2021/12/30 01:38:12;;;;;;;2.47;1.65;;;20.20;66.50;;;;;;7868415;28;20177;-61
2021/12/30 01:41:58;;;;;;;4.32;1.95;;;20.20;66.50;;;;;;7870953;28;20212;-60
2021/12/30 01:45:45;;;;;;;1.75;1.60;;;20.10;66.50;;;;;;7870964;28;20204;-60
2021/12/30 01:49:31;;;;;;;4.47;1.80;;;20.20;66.60;;;;;;7870196;28;20678;-61
2021/12/30 01:53:17;;;;;;;2.97;1.73;;;20.10;66.60;;;;;;7870295;28;20588;-61
2021/12/30 01:57:05;;;;;;;2.25;1.73;;;20.10;66.60;;;;;;7870000;28;20177;-60
2021/12/30 02:00:51;;;;;;;3.55;1.90;;;20.10;66.60;;;;;;7869110;28;20220;-61
2021/12/30 02:04:37;;;;;;;2.72;2.08;;;20.10;66.60;;;;;;7869732;28;20180;-61
2021/12/30 02:08:22;;;;;;;2.15;1.70;;;20.10;66.70;;;;;;7868958;28;20642;-61
2021/12/30 02:12:08;;;;;;;1.92;1.52;;;20.10;66.70;;;;;;7869648;28;20231;-61
2021/12/30 02:16:00;;;;;;;1.85;1.63;;;20.10;66.70;;;;;;7869151;28;20220;-61
2021/12/30 02:19:46;;;;;;;2.20;1.70;;;20.10;66.70;;;;;;7868868;28;20177;-61
2021/12/30 02:23:35;;;;;;;3.72;1.83;;;20.10;66.70;;;;;;7869276;28;20212;-61
2021/12/30 02:27:20;;;;;;;1.70;1.60;;;20.10;66.70;;;;;;7869319;28;20672;-61
2021/12/30 02:31:17;;;;;;;1.67;1.58;;;20.00;66.60;;;;;;7868506;28;20201;-61
2021/12/30 02:35:03;;;;;;;2.03;1.80;;;20.10;66.70;;;;;;7869360;28;20247;-60
2021/12/30 02:38:48;;;;;;;1.80;1.50;;;20.00;66.70;;;;;;7868411;28;20801;-61
2021/12/30 02:42:34;;;;;;;3.15;1.58;;;20.10;66.70;;;;;;7868657;28;20665;-61
2021/12/30 02:46:22;;;;;;;1.90;1.42;;;20.00;66.70;;;;;;7868937;28;20173;-61
2021/12/30 02:50:08;;;;;;;1.77;1.42;;;20.00;66.70;;;;;;7868080;28;20174;-61
2021/12/30 02:53:55;;;;;;;1.58;1.48;;;20.00;66.80;;;;;;7868892;28;20204;-61
2021/12/30 02:57:40;;;;;;;2.42;1.65;;;20.00;66.80;;;;;;7868114;28;20669;-61
2021/12/30 03:01:28;;;;;;;2.45;1.30;;;20.00;66.80;;;;;;7868752;28;20567;-59
2021/12/30 03:05:18;;;;;;;1.55;1.40;;;20.00;66.80;;;;;;7868659;28;20188;-60
2021/12/30 03:09:04;;;;;;;2.30;1.60;;;20.00;66.80;;;;;;7868079;28;20238;-61
2021/12/30 03:12:55;;;;;;;2.40;1.38;;;20.00;66.80;;;;;;7868457;28;20254;-60
2021/12/30 03:16:42;;;;;;;2.35;1.40;;;20.00;66.80;;;;;;7868640;28;20197;-60
2021/12/30 03:20:32;;;;;;;1.77;1.50;;;19.90;66.70;;;;;;7867812;28;20204;-60
2021/12/30 03:24:17;;;;;;;1.75;1.60;;;19.90;66.80;;;;;;7868484;28;20169;-61
2021/12/30 03:28:03;;;;;;;1.60;1.40;;;19.90;66.80;;;;;;7868461;28;20212;-61
2021/12/30 03:31:48;;;;;;;3.00;1.35;;;19.90;66.80;;;;;;7874269;28;20226;-61
2021/12/30 03:35:34;;;;;;;1.70;1.50;;;19.90;66.90;;;;;;7874122;28;20280;-61
2021/12/30 03:39:20;;;;;;;1.42;1.30;;;19.90;66.80;;;;;;7873432;28;20254;-61
2021/12/30 03:43:05;;;;;;;1.30;1.20;;;19.90;66.80;;;;;;7874166;28;20860;-61
2021/12/30 03:46:51;;;;;;;1.08;1.00;;;19.80;66.70;;;;;;7874152;28;20208;-61
2021/12/30 03:50:43;;;;;;;2.20;1.48;;;19.80;66.80;;;;;;7873251;28;20217;-60
2021/12/30 03:54:28;;;;;;;2.30;1.30;;;19.80;66.90;;;;;;7874261;28;20208;-60
2021/12/30 03:58:14;;;;;;;1.50;1.40;;;19.90;67.00;;;;;;7873378;28;20165;-61
2021/12/30 04:01:59;;;;;;;1.23;1.08;;;19.80;66.80;;;;;;7873946;28;20204;-61
2021/12/30 04:05:45;;;;;;;1.20;1.10;;;19.80;67.00;;;;;;7873839;28;20174;-61
2021/12/30 04:09:31;;;;;;;1.67;1.17;;;19.80;66.90;;;;;;7873058;28;20185;-61
2021/12/30 04:13:17;;;;;;;1.30;1.20;;;19.80;66.90;;;;;;7873319;28;20255;-61
2021/12/30 04:17:02;;;;;;;3.13;1.30;;;19.80;67.00;;;;;;7873243;28;20173;-61
2021/12/30 04:20:48;;;;;;;1.50;1.30;;;19.80;67.00;;;;;;7872251;28;20197;-61
2021/12/30 04:24:34;;;;;;;2.25;1.23;;;19.80;67.00;;;;;;7872991;28;20177;-61
2021/12/30 04:28:19;;;;;;;1.13;1.00;;;19.80;67.00;;;;;;7871980;28;20177;-60
2021/12/30 04:32:05;;;;;;;2.33;1.52;;;19.80;67.00;;;;;;7872535;28;20553;-60
2021/12/30 04:35:56;;;;;;;1.70;1.13;;;19.80;67.00;;;;;;7872347;28;20565;-60
2021/12/30 04:39:41;;;;;;;1.50;1.40;;;19.70;67.00;;;;;;7871300;28;20694;-60
2021/12/30 04:43:27;;;;;;;1.33;1.20;;;19.70;67.00;;;;;;7872461;28;20675;-61
2021/12/30 04:47:12;;;;;;;1.50;1.27;;;19.70;67.00;;;;;;7872243;28;20181;-61
2021/12/30 04:50:58;;;;;;;1.60;1.50;;;19.70;67.00;;;;;;7871210;28;20209;-61
2021/12/30 04:54:43;;;;;;;2.17;1.10;;;19.70;67.00;;;;;;7872322;28;20564;-61
2021/12/30 04:58:29;;;;;;;1.40;1.05;;;19.70;67.00;;;;;;7871120;28;20208;-61
2021/12/30 05:02:14;;;;;;;1.10;0.80;;;19.70;67.00;;;;;;7871594;28;20197;-62
2021/12/30 05:06:00;;;;;;;1.33;1.10;;;19.70;67.10;;;;;;7871704;28;20646;-60
2021/12/30 05:09:45;;;;;;;1.35;1.15;;;19.60;67.10;;;;;;7870899;28;20573;-60
2021/12/30 05:13:31;;;;;;;1.30;1.20;;;19.60;67.10;;;;;;7871465;28;20694;-60
2021/12/30 05:17:17;;;;;;;1.42;1.10;;;19.60;67.10;;;;;;7871598;28;20238;-60
2021/12/30 05:21:05;;;;;;;2.53;1.00;;;19.70;67.10;;;;;;7870696;28;20561;-61
2021/12/30 05:24:50;;;;;;;1.08;0.98;;;19.60;67.10;;;;;;7871921;28;20173;-61
2021/12/30 05:28:36;;;;;;;2.35;0.90;;;19.60;67.10;;;;;;7870764;28;20322;-62
2021/12/30 05:32:21;;;;;;;1.30;1.20;;;19.60;67.10;;;;;;7870918;28;20691;-60
2021/12/30 05:36:07;;;;;;;3.03;0.98;;;19.60;67.20;;;;;;7870580;28;20682;-61
2021/12/30 05:39:52;;;;;;;1.48;1.20;;;19.60;67.20;;;;;;7870025;28;20181;-61
2021/12/30 05:43:38;;;;;;;1.10;1.00;;;19.60;67.20;;;;;;7870487;28;20200;-60
2021/12/30 05:47:24;;;;;;;1.15;0.98;;;19.60;67.30;;;;;;7870447;28;20639;-61
2021/12/30 05:51:10;;;;;;;1.50;1.00;;;19.60;67.30;;;;;;7869149;28;20629;-60
2021/12/30 05:54:55;;;;;;;1.55;1.10;;;19.60;67.40;;;;;;7870088;28;20205;-62
2021/12/30 05:58:41;;;;;;;1.60;1.08;;;19.50;67.30;;;;;;7869262;28;20212;-61
2021/12/30 06:02:26;;;;;;;3.85;0.98;;;19.50;67.30;;;;;;7869805;28;20266;-60
2021/12/30 06:06:12;;;;;;;8.93;1.10;;;19.50;67.30;;;;;;7869902;28;20185;-62
2021/12/30 06:09:57;;;;;;;4.97;1.05;;;19.50;67.40;;;;;;7868967;28;20185;-61
2021/12/30 06:13:43;;;;;;;2.63;1.00;;;19.50;67.40;;;;;;7869552;28;20267;-61
2021/12/30 06:17:29;;;;;;;4.22;1.00;;;19.50;67.40;;;;;;7868926;28;20200;-62
2021/12/30 06:21:14;;;;;;;4.28;1.13;;;19.50;67.40;;;;;;7869307;28;20220;-62
2021/12/30 06:25:00;;;;;;;4.35;0.93;;;19.50;67.40;;;;;;7869638;28;20204;-60
2021/12/30 06:28:45;;;;;;;3.65;1.02;;;19.50;67.40;;;;;;7868705;28;20303;-61
2021/12/30 06:32:31;;;;;;;6.30;0.90;;;19.50;67.40;;;;;;7869342;28;20685;-61
2021/12/30 06:36:17;;;;;;;3.08;1.13;;;19.50;67.40;;;;;;7869105;28;20215;-62
2021/12/30 06:40:05;;;;;;;6.03;0.90;;;19.50;67.40;;;;;;7868491;28;20203;-61
2021/12/30 06:43:50;;;;;;;2.50;1.38;;;19.50;67.40;;;;;;7869066;28;20290;-61
2021/12/30 06:47:36;;;;;;;1.65;0.93;;;19.50;67.50;;;;;;7868219;28;20177;-61
2021/12/30 06:51:23;;;;;;;2.92;0.98;;;19.40;67.40;;;;;;7869014;28;20213;-60
2021/12/30 06:55:10;;;;;;;3.42;1.00;;;19.40;67.40;;;;;;7868841;28;20235;-61
2021/12/30 06:58:55;;;;;;;5.18;1.30;;;19.40;67.40;;;;;;7868141;28;20177;-62
2021/12/30 07:02:44;;;;;;;3.38;1.00;;;19.40;67.40;;;;;;7870551;28;20674;-60
2021/12/30 07:06:30;;;;;;;3.33;0.80;;;19.40;67.40;;;;;;7875272;28;20177;-61
2021/12/30 07:10:15;;;;;;;3.28;1.00;;;19.40;67.40;;;;;;7874357;28;20234;-61
2021/12/30 07:14:01;;;;;;;1.35;0.80;;;19.40;68.30;;;;;;7874901;28;20201;-61
2021/12/30 07:17:47;;;;;;;4.00;1.02;;;19.40;67.40;;;;;;7874123;28;20188;-62
2021/12/30 07:21:33;;;;;;;3.42;1.00;;;19.40;67.40;;;;;;7874668;28;20243;-60
2021/12/30 07:25:18;;;;;;;11.65;1.15;;;19.40;67.70;;;;;;7874615;28;20177;-61
2021/12/30 07:29:04;;;;;;;36.40;2.17;;;19.40;67.70;;;;;;7873842;28;20183;-61
2021/12/30 07:32:51;;;;;;;33.22;1.52;;;19.40;67.90;;;;;;7874301;28;20702;-62
2021/12/30 07:36:36;;;;;;;14.27;2.92;;;19.40;67.80;;;;;;7874422;28;20212;-62
2021/12/30 07:40:22;;;;;;;15.35;1.95;;;19.30;67.80;;;;;;7873630;28;20235;-61
2021/12/30 07:44:09;;;;;;;4.50;0.98;;;19.40;67.90;;;;;;7874278;28;20204;-62
2021/12/30 07:47:54;;;;;;;12.90;1.10;;;19.30;67.80;;;;;;7873368;28;20166;-60
2021/12/30 07:51:40;;;;;;;4.95;0.88;;;19.30;67.80;;;;;;7873870;28;20296;-62
2021/12/30 07:55:26;;;;;;;7.13;0.98;;;19.30;67.70;;;;;;7873859;28;20205;-60
2021/12/30 07:59:11;;;;;;;6.40;0.90;;;19.30;67.80;;;;;;7872946;28;20647;-60
2021/12/30 08:02:57;;;;;;;6.55;1.13;;;19.30;67.80;;;;;;7873413;28;20264;-60
2021/12/30 08:06:42;;;;;;;9.45;1.08;;;19.30;67.80;;;;;;7873393;28;20201;-62
2021/12/30 08:10:29;;;;;;;1.13;0.88;;;19.30;67.70;;;;;;7872383;28;20601;-62
2021/12/30 08:14:15;;;;;;;2.35;1.10;;;19.30;67.70;;;;;;7871710;28;20197;-61
2021/12/30 08:18:00;;;;;;;4.63;0.90;;;19.30;67.80;;;;;;7872214;28;20170;-61
2021/12/30 08:21:46;;;;;;;5.63;0.90;;;19.30;67.80;;;;;;7872786;28;20189;-61
2021/12/30 08:25:31;;;;;;;2.10;0.80;;;19.20;67.80;;;;;;7872706;28;20205;-61
2021/12/30 08:29:17;;;;;;;5.63;0.90;;;19.20;67.80;;;;;;7871985;28;20185;-61
2021/12/30 08:33:02;;;;;;;5.15;0.90;;;19.20;67.80;;;;;;7872289;28;20205;-60
2021/12/30 08:36:48;;;;;;;5.50;0.98;;;19.20;67.80;;;;;;7872231;28;20165;-61
2021/12/30 08:40:34;;;;;;;5.22;0.98;;;19.20;67.80;;;;;;7871761;28;20682;-60
2021/12/30 08:44:19;;;;;;;4.03;0.93;;;19.20;67.80;;;;;;7872223;28;20272;-61
2021/12/30 08:48:05;;;;;;;5.93;1.00;;;19.20;67.80;;;;;;7871470;28;20260;-61
2021/12/30 08:51:51;;;;;;;2.83;0.90;;;19.20;67.80;;;;;;7871893;28;20220;-61
2021/12/30 08:55:36;;;;;;;3.10;0.98;;;19.20;67.80;;;;;;7871874;28;20270;-60
2021/12/30 08:59:22;;;;;;;7.00;0.90;;;19.20;67.80;;;;;;7871071;28;20196;-61
2021/12/30 09:03:07;;;;;;;5.35;0.90;;;19.20;67.80;;;;;;7871819;28;20243;-61
2021/12/30 09:06:53;;;;;;;1.70;0.93;;;19.10;67.80;;;;;;7871866;28;20178;-60
2021/12/30 09:10:40;;;;;;;2.95;0.77;;;19.20;67.80;;;;;;7870666;28;20272;-60
2021/12/30 09:14:26;;;;;;;5.43;1.05;;;19.10;67.80;;;;;;7871310;28;20681;-60
2021/12/30 09:18:13;;;;;;;8.80;1.33;;;19.20;67.80;;;;;;7870517;28;20260;-61
2021/12/30 09:21:58;;;;;;;3.20;1.30;;;19.10;67.80;;;;;;7871177;28;20288;-61
2021/12/30 09:25:44;;;;;;;3.22;1.20;;;19.10;67.80;;;;;;7869986;28;20193;-60
2021/12/30 09:29:30;;;;;;;1.52;1.00;;;19.10;67.80;;;;;;7870213;28;20182;-61
2021/12/30 09:33:16;;;;;;;4.25;1.00;;;19.20;67.80;;;;;;7870674;28;20204;-62
2021/12/30 09:37:02;;;;;;;1.17;0.80;;;19.10;67.80;;;;;;7870611;28;20169;-61
2021/12/30 09:40:48;;;;;;;6.60;1.10;;;19.20;67.80;;;;;;7869893;28;20186;-62
2021/12/30 09:44:34;;;;;;;2.30;1.15;;;19.10;67.80;;;;;;7870329;28;20203;-59
2021/12/30 09:48:19;;;;;;;4.97;1.20;;;19.20;67.80;;;;;;7869724;28;20173;-61
2021/12/30 09:52:05;;;;;;;3.10;1.10;;;19.20;67.80;;;;;;7870072;28;20205;-60
2021/12/30 09:55:55;;;;;;;3.13;0.82;;;19.20;67.80;;;;;;7870145;28;20212;-62
2021/12/30 09:59:40;;;;;;;4.43;1.02;;;19.20;67.80;;;;;;7869502;28;20181;-61
2021/12/30 10:03:27;;;;;;;1.58;0.88;;;19.20;67.80;;;;;;7877963;28;20263;-61
2021/12/30 10:07:21;;;;;;;6.95;1.25;;;19.30;67.80;;;;;;7893990;28;20181;-62
2021/12/30 10:11:12;;;;;;;2.75;1.05;;;19.30;67.80;;;;;;7900743;28;20200;-61
2021/12/30 10:14:58;;;;;;;1.10;1.00;;;19.30;68.60;;;;;;7901101;28;20291;-61
2021/12/30 10:19:05;;;;;;;1.85;0.95;;;19.30;67.70;;;;;;7900299;28;20222;-60
2021/12/30 10:22:52;;;;;;;3.38;1.33;;;19.30;67.70;;;;;;7900946;28;20265;-62
2021/12/30 10:26:57;;;;;;;4.18;0.95;;;19.30;67.60;;;;;;7900840;28;20279;-62
2021/12/30 10:30:44;;;;;;;6.50;1.13;;;19.40;67.70;;;;;;7900086;28;20200;-61
2021/12/30 10:34:29;;;;;;;1.88;1.00;;;19.40;67.70;;;;;;7898393;28;20665;-61
2021/12/30 10:38:15;;;;;;;1.35;0.85;;;19.40;67.60;;;;;;7868366;28;20560;-61
2021/12/30 10:42:04;;;;;;;4.80;1.00;;;19.40;67.60;;;;;;7850276;28;20679;-61
2021/12/30 10:46:24;;;;;;;3.92;1.20;;;19.50;67.60;;;;;;7866361;28;20249;-61
2021/12/30 10:50:12;;;;;;;4.57;1.60;;;19.50;67.30;;;;;;7724795;28;20203;-61
2021/12/30 10:53:58;;;;;;;7.82;1.60;;;19.50;67.00;;;;;;7741860;28;20219;-62
2021/12/30 10:57:44;;;;;;;19.92;1.67;;;19.50;67.00;;;;;;7745694;28;20196;-61
2021/12/30 11:01:37;;;;;;;21.05;1.75;;;19.50;67.30;;;;;;7769687;28;20289;-60
2021/12/30 11:05:22;;;;;;;8.98;1.48;;;19.50;67.40;;;;;;7770870;28;20187;-60
2021/12/30 11:09:17;;;;;;;8.07;1.38;;;19.60;67.40;;;;;;7771290;28;20190;-60
2021/12/30 11:13:13;;;;;;;7.03;1.42;;;19.60;67.40;;;;;;7771517;28;20207;-61
2021/12/30 11:17:09;;;;;;;14.70;1.58;;;19.60;67.40;;;;;;7768298;28;20178;-58
2021/12/30 11:20:54;;;;;;;21.85;1.88;;;19.60;67.30;;;;;;7769961;28;20198;-59
2021/12/30 11:24:40;;;;;;;13.20;1.48;;;19.60;67.30;;;;;;7822427;28;20212;-60
2021/12/30 11:28:26;;;;;;;16.27;1.45;;;19.60;67.30;;;;;;7899213;28;20180;-59
2021/12/30 11:32:16;;;;;;;10.38;1.35;;;19.70;68.20;;;;;;7899663;28;20230;-62
2021/12/30 11:36:02;;;;;;;4.10;1.13;;;19.60;68.10;;;;;;7899537;28;20627;-59
2021/12/30 11:39:50;;;;;;;6.97;1.45;;;19.60;67.10;;;;;;7899151;28;20213;-58
2021/12/30 11:43:44;;;;;;;4.50;1.10;;;19.60;67.10;;;;;;7899423;28;20204;-60
2021/12/30 11:47:34;;;;;;;3.03;1.10;;;19.60;67.10;;;;;;7899017;28;20199;-60
2021/12/30 11:51:22;;;;;;;9.77;1.48;;;19.60;67.10;;;;;;7903732;28;20216;-61
2021/12/30 11:55:43;;;;;;;2.83;1.10;;;19.70;67.20;;;;;;7905204;28;20211;-61
2021/12/30 11:59:38;;;;;;;5.60;1.30;;;19.60;67.10;;;;;;7904404;28;20180;-61
2021/12/30 12:03:37;;;;;;;4.15;1.67;;;19.70;67.10;;;;;;7904887;28;20561;-59
2021/12/30 12:07:22;;;;;;;7.22;1.20;;;19.60;67.10;;;;;;7905419;28;20761;-60
2021/12/30 12:11:14;;;;;;;3.28;1.20;;;19.70;67.10;;;;;;7904672;28;20223;-59
2021/12/30 12:15:02;;;;;;;5.78;1.55;;;19.70;68.10;;;;;;7904728;28;20207;-59
2021/12/30 12:19:05;;;;;;;3.83;1.10;;;19.60;67.10;;;;;;7903846;28;20211;-60
2021/12/30 12:22:51;;;;;;;8.27;1.58;;;19.60;67.10;;;;;;7904365;28;20189;-61
2021/12/30 12:26:39;;;;;;;4.53;1.02;;;19.60;67.10;;;;;;7904651;28;20192;-60
2021/12/30 12:30:32;;;;;;;3.40;1.08;;;19.60;67.10;;;;;;7903467;28;20181;-60
2021/12/30 12:34:42;;;;;;;3.05;1.10;;;19.70;67.10;;;;;;7904092;28;20219;-60
2021/12/30 12:38:48;;;;;;;5.22;1.38;;;19.70;67.10;;;;;;7903299;28;20187;-60
2021/12/30 12:42:48;;;;;;;3.47;1.33;;;19.70;67.20;;;;;;7903419;28;20189;-60
2021/12/30 12:46:45;;;;;;;4.18;1.17;;;19.70;67.20;;;;;;7903679;28;20179;-59
2021/12/30 12:50:38;;;;;;;6.45;1.55;;;19.60;67.10;;;;;;7902733;28;20227;-60
2021/12/30 12:54:47;;;;;;;2.55;1.10;;;19.70;67.20;;;;;;7892625;28;20215;-61
2021/12/30 12:58:37;;;;;;;3.50;1.17;;;19.70;67.20;;;;;;7856871;28;20188;-61
2021/12/30 13:02:22;;;;;;;9.75;2.30;;;19.70;67.20;;;;;;7871487;28;20193;-61
2021/12/30 13:06:22;;;;;;;11.88;2.83;;;19.70;67.30;;;;;;7901323;28;20191;-60
2021/12/30 13:10:10;;;;;;;21.63;2.33;;;19.70;67.50;;;;;;7902026;28;20216;-61
2021/12/30 13:13:56;;;;;;;15.15;2.33;;;19.70;67.50;;;;;;7902635;28;20208;-61
2021/12/30 13:17:43;;;;;;;17.38;2.58;;;19.70;67.60;;;;;;7902068;28;20215;-61
2021/12/30 13:21:41;;;;;;;15.82;2.42;;;19.70;67.40;;;;;;7881588;28;20189;-60
2021/12/30 13:25:27;;;;;;;13.20;2.00;;;19.70;67.50;;;;;;7870876;28;20177;-61
2021/12/30 13:29:12;;;;;;;14.27;1.80;;;19.70;67.60;;;;;;7869991;28;20231;-61
2021/12/30 13:32:58;;;;;;;17.48;1.83;;;19.70;67.80;;;;;;7870715;28;20213;-59
2021/12/30 13:36:43;;;;;;;13.13;2.42;;;19.70;67.60;;;;;;7870467;28;20209;-59
2021/12/30 13:40:46;;;;;;;10.50;1.55;;;19.80;67.50;;;;;;7869068;28;20568;-61
2021/12/30 13:44:46;;;;;;;9.75;2.00;;;19.80;67.80;;;;;;7869882;28;20190;-59
2021/12/30 13:48:36;;;;;;;12.88;2.00;;;19.80;67.60;;;;;;7867942;28;20559;-61
2021/12/30 13:52:30;;;;;;;16.60;2.17;;;19.80;67.80;;;;;;7871248;28;20685;-60
2021/12/30 13:56:21;;;;;;;12.00;2.15;;;19.90;67.70;;;;;;7877160;28;20204;-61
2021/12/30 14:00:11;;;;;;;17.08;2.03;;;19.90;67.50;;;;;;7900908;28;20542;-61
2021/12/30 14:04:09;;;;;;;9.00;1.77;;;19.90;67.70;;;;;;7901579;28;20181;-61
2021/12/30 14:07:55;;;;;;;14.80;1.98;;;19.90;67.70;;;;;;7900647;28;20183;-59
2021/12/30 14:11:49;;;;;;;12.32;2.28;;;19.90;67.70;;;;;;7900935;28;20201;-61
2021/12/30 14:15:35;;;;;;;10.05;1.65;;;19.90;67.70;;;;;;7901697;28;20246;-60
2021/12/30 14:19:38;;;;;;;7.68;2.28;;;19.90;68.70;;;;;;7900691;28;20169;-61
2021/12/30 14:23:48;;;;;;;8.13;1.50;;;19.90;67.90;;;;;;7901108;28;20200;-61
2021/12/30 14:27:33;;;;;;;6.25;1.70;;;20.00;68.20;;;;;;7900402;28;20275;-62
2021/12/30 14:31:22;;;;;;;9.30;1.77;;;20.00;68.20;;;;;;7900770;28;20192;-61
2021/12/30 14:35:09;;;;;;;7.85;1.40;;;20.00;68.20;;;;;;7900667;28;20681;-60
2021/12/30 14:38:54;;;;;;;6.70;1.60;;;20.10;68.50;;;;;;7846343;28;20174;-58
2021/12/30 14:42:40;;;;;;;10.85;1.83;;;20.10;68.50;;;;;;7837998;28;20914;-59
2021/12/30 14:46:26;;;;;;;6.28;1.40;;;20.20;68.50;;;;;;7838139;28;20197;-60
2021/12/30 14:50:25;;;;;;;10.65;1.55;;;20.30;68.50;;;;;;7837070;28;20693;-59
2021/12/30 14:54:13;;;;;;;9.20;1.58;;;20.40;68.50;;;;;;7837775;28;20205;-58
2021/12/30 14:58:01;;;;;;;5.53;1.30;;;20.40;68.50;;;;;;7837013;28;20217;-58
2021/12/30 15:01:47;;;;;;;5.55;1.27;;;20.50;68.50;;;;;;7837793;28;20213;-61
2021/12/30 15:05:33;;;;;;;3.53;1.05;;;20.50;68.50;;;;;;7837667;28;20186;-61
2021/12/30 15:09:18;;;;;;;2.45;1.13;;;20.60;68.50;;;;;;7837485;28;20189;-60
2021/12/30 15:13:06;;;;;;;3.15;1.02;;;20.60;68.50;;;;;;7837583;28;20202;-61
2021/12/30 15:16:52;;;;;;;8.75;1.30;;;20.60;68.40;;;;;;7837429;28;20683;-60
2021/12/30 15:20:37;;;;;;;4.75;1.20;;;20.70;68.50;;;;;;7836760;28;20558;-59
2021/12/30 15:24:23;;;;;;;11.30;1.92;;;20.70;68.50;;;;;;7853258;28;20185;-61
2021/12/30 15:28:08;;;;;;;11.45;2.08;;;20.70;68.50;;;;;;7873652;28;20619;-60
2021/12/30 15:31:55;;;;;;;9.07;2.40;;;20.60;69.30;;;;;;7874337;28;20242;-60
2021/12/30 15:35:42;;;;;;;6.28;1.70;;;20.60;69.80;;;;;;7874240;28;20258;-60
2021/12/30 15:39:29;;;;;;;4.07;2.17;;;20.60;69.80;;;;;;7873267;28;20204;-62
2021/12/30 15:43:15;;;;;;;4.25;1.65;;;20.70;69.80;;;;;;7874136;28;20691;-60
2021/12/30 15:47:00;;;;;;;8.43;1.98;;;20.80;69.80;;;;;;7874054;28;20592;-60
2021/12/30 15:50:46;;;;;;;4.93;1.85;;;20.80;69.80;;;;;;7870632;28;20216;-58
2021/12/30 15:54:32;;;;;;;4.63;1.98;;;20.90;69.80;;;;;;7849154;28;20218;-61
2021/12/30 15:58:18;;;;;;;3.92;1.73;;;21.00;69.70;;;;;;7842245;28;20182;-60
2021/12/30 16:02:08;;;;;;;5.68;1.73;;;21.20;69.50;;;;;;7843107;28;20614;-61
2021/12/30 16:05:54;;;;;;;4.68;1.73;;;21.30;69.40;;;;;;7842790;28;20170;-61
2021/12/30 16:09:39;;;;;;;10.82;1.55;;;21.50;69.20;;;;;;7841751;28;20181;-59
2021/12/30 16:13:25;;;;;;;3.65;1.30;;;21.70;69.10;;;;;;7842168;28;20202;-61
2021/12/30 16:17:11;;;;;;;6.40;1.08;;;21.90;69.00;;;;;;7841935;28;20178;-61
2021/12/30 16:20:57;;;;;;;9.45;2.28;;;22.00;68.90;;;;;;7841121;28;20259;-61
2021/12/30 16:24:42;;;;;;;5.57;1.55;;;22.30;68.80;;;;;;7841828;28;20185;-61
2021/12/30 16:28:28;;;;;;;5.03;1.30;;;22.40;68.60;;;;;;7841282;28;20218;-62
2021/12/30 16:32:13;;;;;;;11.05;2.08;;;22.60;69.40;;;;;;7870003;28;20209;-62
2021/12/30 16:35:59;;;;;;;4.78;1.10;;;22.70;68.40;;;;;;7871735;28;20217;-60
2021/12/30 16:39:44;;;;;;;11.10;1.63;;;22.90;68.20;;;;;;7871396;28;20252;-62
2021/12/30 16:43:30;;;;;;;4.18;1.10;;;22.90;68.00;;;;;;7872282;28;20228;-60
2021/12/30 16:47:19;;;;;;;4.80;1.30;;;23.00;68.00;;;;;;7872340;28;20256;-60
2021/12/30 16:51:04;;;;;;;9.90;1.40;;;23.00;67.80;;;;;;7871007;28;20240;-60
2021/12/30 16:54:50;;;;;;;5.72;1.25;;;23.00;67.90;;;;;;7871969;28;20211;-62
2021/12/30 16:58:35;;;;;;;4.43;1.45;;;23.10;67.90;;;;;;7871276;28;20662;-60
2021/12/30 17:02:21;;;;;;;2.80;1.30;;;23.10;68.00;;;;;;7872021;28;20205;-60
2021/12/30 17:06:06;;;;;;;30.17;1.73;;;23.00;68.00;;;;;;7871844;28;20181;-60
2021/12/30 17:09:52;;;;;;;48.50;2.65;;;23.00;68.40;;;;;;7870636;28;20260;-61
2021/12/30 17:13:37;;;;;;;38.15;1.83;;;23.00;68.60;;;;;;7871353;28;20721;-61
2021/12/30 17:17:23;;;;;;;28.42;3.50;;;23.00;68.80;;;;;;7871290;28;20564;-59
2021/12/30 17:21:13;;;;;;;26.08;2.05;;;22.90;69.00;;;;;;7870369;28;20200;-61
2021/12/30 17:24:58;;;;;;;12.60;1.42;;;23.00;69.20;;;;;;7871543;28;20210;-60
2021/12/30 17:28:44;;;;;;;21.83;1.98;;;22.90;69.30;;;;;;7870577;28;20185;-61
2021/12/30 17:32:29;;;;;;;21.00;2.13;;;22.80;69.40;;;;;;7870573;28;20220;-60
2021/12/30 17:36:15;;;;;;;10.27;2.38;;;22.80;69.70;;;;;;7870676;28;20680;-61
2021/12/30 17:40:02;;;;;;;17.13;1.77;;;22.70;70.70;;;;;;7869597;28;20654;-60
2021/12/30 17:43:48;;;;;;;15.85;1.70;;;22.70;70.10;;;;;;7870611;28;20572;-59
2021/12/30 17:47:34;;;;;;;8.68;1.67;;;22.60;70.10;;;;;;7869137;28;20204;-61
2021/12/30 17:51:20;;;;;;;8.38;1.58;;;22.60;70.30;;;;;;7869970;28;20561;-61
2021/12/30 17:55:06;;;;;;;17.88;2.47;;;22.50;70.40;;;;;;7870422;28;20205;-61
2021/12/30 17:58:52;;;;;;;20.77;2.28;;;22.40;70.50;;;;;;7869599;28;20180;-61
2021/12/30 18:02:38;;;;;;;15.32;2.40;;;22.40;70.90;;;;;;7869708;28;20227;-61
2021/12/30 18:06:24;;;;;;;13.95;1.52;;;22.40;70.90;;;;;;7884996;28;20185;-61
2021/12/30 18:10:10;;;;;;;12.82;2.15;;;22.30;70.80;;;;;;7900656;28;20661;-60
2021/12/30 18:13:56;;;;;;;18.00;1.95;;;22.30;71.70;;;;;;7901001;28;20239;-60
2021/12/30 18:17:42;;;;;;;18.25;2.15;;;22.20;71.00;;;;;;7899966;28;20180;-61
2021/12/30 18:21:27;;;;;;;20.75;2.53;;;22.20;71.40;;;;;;7900570;28;20215;-61
2021/12/30 18:25:13;;;;;;;10.55;1.58;;;22.10;70.70;;;;;;7900939;28;20188;-61
2021/12/30 18:28:58;;;;;;;19.30;1.70;;;22.00;71.30;;;;;;7900097;28;20184;-61
2021/12/30 18:32:44;;;;;;;8.48;1.48;;;22.00;71.20;;;;;;7900422;28;20214;-62
2021/12/30 18:36:30;;;;;;;17.50;1.73;;;22.00;71.10;;;;;;7900483;28;20196;-62
2021/12/30 18:40:17;;;;;;;5.85;1.20;;;22.10;71.00;;;;;;7875433;28;20264;-60
2021/12/30 18:44:04;;;;;;;10.77;1.80;;;22.30;70.70;;;;;;7869100;28;20343;-60
2021/12/30 18:47:51;;;;;;;7.00;2.15;;;22.40;70.40;;;;;;7867922;28;20255;-60
2021/12/30 18:51:37;;;;;;;11.40;1.63;;;22.60;70.10;;;;;;7867283;28;20221;-61
2021/12/30 18:55:23;;;;;;;9.95;1.55;;;22.80;69.80;;;;;;7868842;28;20711;-61
2021/12/30 18:59:09;;;;;;;7.38;1.20;;;23.00;69.50;;;;;;7872151;28;20578;-60
2021/12/30 19:02:57;;;;;;;9.10;1.30;;;23.20;69.30;;;;;;7877727;28;20189;-59
2021/12/30 19:06:43;;;;;;;5.40;1.13;;;23.40;69.10;;;;;;7861073;28;20187;-60
2021/12/30 19:10:30;;;;;;;8.27;1.42;;;23.50;68.90;;;;;;7876507;28;20173;-61
2021/12/30 19:14:15;;;;;;;9.50;1.33;;;23.60;68.80;;;;;;7878765;28;20281;-61
2021/12/30 19:18:01;;;;;;;3.70;1.30;;;23.70;68.70;;;;;;7856274;28;20186;-60
2021/12/30 19:21:47;;;;;;;4.03;1.17;;;23.80;68.70;;;;;;7847609;28;20197;-61
2021/12/30 19:25:32;;;;;;;3.50;1.15;;;23.80;68.60;;;;;;7848448;28;20655;-60
2021/12/30 19:29:18;;;;;;;6.32;1.30;;;23.90;68.50;;;;;;7847318;28;20567;-61
2021/12/30 19:33:04;;;;;;;8.55;1.33;;;23.80;68.70;;;;;;7847462;28;20267;-61
2021/12/30 19:36:49;;;;;;;10.85;1.30;;;23.70;69.00;;;;;;7847620;28;20233;-62
2021/12/30 19:40:35;;;;;;;7.55;1.42;;;23.70;69.00;;;;;;7846798;28;20569;-61
2021/12/30 19:44:20;;;;;;;8.90;1.80;;;23.70;69.00;;;;;;7847366;28;20552;-61